createdAt,value
2019-03-06T00:01:28.862Z,97.89
2019-03-06T00:03:57.975Z,96.95
2019-03-06T00:06:27.097Z,97.68
2019-03-06T00:08:56.127Z,97.69
2019-03-06T00:11:25.151Z,97.07
2019-03-06T00:13:54.192Z,97.75
2019-03-06T00:16:23.261Z,98.05
2019-03-06T00:18:52.320Z,97.65
2019-03-06T00:21:21.358Z,97.33
2019-03-06T00:23:50.466Z,98.10
2019-03-06T00:26:19.497Z,98.56
2019-03-06T00:28:50.607Z,98.04
2019-03-06T00:31:19.634Z,97.36
2019-03-06T00:33:48.739Z,98.06
2019-03-06T00:36:22.426Z,97.05
2019-03-06T00:38:51.463Z,97.91
2019-03-06T00:41:45.788Z,98.70
2019-03-06T00:44:16.898Z,99.39
2019-03-06T00:46:45.968Z,98.97
2019-03-06T00:49:15.018Z,98.90
2019-03-06T00:51:44.101Z,98.75
2019-03-06T00:54:13.218Z,98.58
2019-03-06T00:56:42.278Z,98.19
2019-03-06T00:59:11.357Z,98.12
2019-03-06T01:01:40.403Z,98.17
2019-03-06T01:04:09.457Z,98.33
2019-03-06T01:06:38.538Z,98.05
2019-03-06T01:09:08.044Z,98.32
2019-03-06T01:11:37.195Z,97.29
2019-03-06T01:14:06.299Z,98.03
2019-03-06T01:16:35.375Z,97.67
2019-03-06T01:19:04.419Z,98.20
2019-03-06T01:21:33.468Z,98.66
2019-03-06T01:24:02.518Z,98.74
2019-03-06T01:26:31.588Z,98.26
2019-03-06T01:29:00.627Z,98.39
2019-03-06T01:31:29.737Z,98.14
2019-03-06T01:34:23.501Z,98.19
2019-03-06T01:37:29.985Z,98.13
2019-03-06T01:40:18.064Z,98.27
2019-03-06T01:42:54.662Z,98.59
2019-03-06T01:45:23.691Z,99.88
2019-03-06T01:47:54.741Z,99.26
2019-03-06T01:50:23.763Z,98.84
2019-03-06T01:52:55.513Z,98.03
2019-03-06T01:55:24.488Z,97.32
2019-03-06T01:57:53.592Z,98.11
2019-03-06T02:00:22.811Z,97.84
2019-03-06T02:02:51.877Z,97.69
2019-03-06T02:05:20.865Z,96.72
2019-03-06T02:07:49.934Z,96.61
2019-03-06T02:10:18.991Z,96.97
2019-03-06T02:12:51.751Z,96.63
2019-03-06T02:15:21.223Z,97.62
2019-03-06T02:17:50.334Z,98.35
2019-03-06T02:20:19.436Z,97.88
2019-03-06T02:22:51.435Z,97.91
2019-03-06T02:25:20.465Z,97.75
2019-03-06T02:27:49.573Z,97.41
2019-03-06T02:30:20.508Z,98.12
2019-03-06T02:32:50.895Z,98.22
2019-03-06T02:35:20.007Z,98.33
2019-03-06T02:37:49.113Z,98.13
2019-03-06T02:40:20.376Z,97.95
2019-03-06T02:42:49.452Z,97.54
2019-03-06T02:45:18.500Z,97.45
2019-03-06T02:47:47.708Z,96.96
2019-03-06T02:50:16.762Z,97.33
2019-03-06T02:52:45.836Z,98.08
2019-03-06T02:55:15.118Z,98.88
2019-03-06T02:57:50.768Z,98.83
2019-03-06T03:00:47.545Z,98.25
2019-03-06T03:03:36.657Z,98.08
2019-03-06T03:06:10.036Z,97.31
2019-03-06T03:08:39.091Z,97.86
2019-03-06T03:11:08.155Z,97.06
2019-03-06T03:13:38.151Z,97.02
2019-03-06T03:16:09.513Z,98.14
2019-03-06T03:18:39.153Z,98.85
2019-03-06T03:21:08.210Z,98.88
2019-03-06T03:23:37.274Z,98.30
2019-03-06T03:26:06.323Z,97.17
2019-03-06T03:28:35.377Z,97.09
2019-03-06T03:31:04.458Z,96.65
2019-03-06T03:33:38.458Z,96.96
2019-03-06T03:36:08.570Z,96.92
2019-03-06T03:38:37.682Z,96.75
2019-03-06T03:41:06.718Z,96.29
2019-03-06T03:43:36.035Z,96.06
2019-03-06T03:46:05.318Z,95.57
2019-03-06T03:48:34.513Z,96.26
2019-03-06T03:51:03.677Z,95.68
2019-03-06T03:53:32.777Z,95.52
2019-03-06T03:56:01.860Z,94.85
2019-03-06T03:58:30.921Z,97.08
2019-03-06T04:00:59.961Z,97.11
2019-03-06T04:03:29.129Z,98.18
2019-03-06T04:05:58.172Z,98.11
2019-03-06T04:08:27.281Z,97.80
2019-03-06T04:10:56.380Z,97.87
2019-03-06T04:13:26.529Z,97.49
2019-03-06T04:15:55.597Z,97.18
2019-03-06T04:18:24.745Z,96.73
2019-03-06T04:20:53.848Z,95.65
2019-03-06T04:23:22.863Z,96.00
2019-03-06T04:25:51.960Z,95.26
2019-03-06T04:28:21.032Z,94.58
2019-03-06T04:30:53.167Z,95.51
2019-03-06T04:33:22.327Z,95.67
2019-03-06T04:35:51.363Z,96.55
2019-03-06T04:38:20.397Z,96.27
2019-03-06T04:40:51.774Z,95.43
2019-03-06T04:43:20.849Z,95.99
2019-03-06T04:45:49.974Z,96.51
2019-03-06T04:48:18.975Z,95.95
2019-03-06T04:50:48.328Z,94.92
2019-03-06T04:53:17.345Z,95.84
2019-03-06T04:55:50.436Z,94.93
2019-03-06T04:58:19.770Z,97.54
2019-03-06T05:00:48.846Z,97.39
2019-03-06T05:03:17.905Z,97.40
2019-03-06T05:05:47.109Z,96.99
2019-03-06T05:08:17.209Z,97.55
2019-03-06T05:10:48.887Z,98.97
2019-03-06T05:13:17.850Z,98.36
2019-03-06T05:15:46.918Z,97.93
2019-03-06T05:18:27.849Z,97.82
2019-03-06T05:20:57.035Z,98.20
2019-03-06T05:23:26.076Z,97.67
2019-03-06T05:25:55.206Z,97.32
2019-03-06T05:28:24.294Z,96.97
2019-03-06T05:30:53.329Z,97.45
2019-03-06T05:33:25.520Z,98.63
2019-03-06T05:36:40.458Z,98.15
2019-03-06T05:39:10.839Z,96.69
2019-03-06T05:41:40.157Z,97.88
2019-03-06T05:44:09.219Z,97.89
2019-03-06T05:46:38.358Z,98.24
2019-03-06T05:49:07.527Z,98.53
2019-03-06T05:51:36.653Z,97.93
2019-03-06T05:54:05.713Z,98.49
2019-03-06T05:56:34.773Z,99.13
2019-03-06T05:59:04.965Z,98.49
2019-03-06T06:01:34.267Z,97.67
2019-03-06T06:04:03.291Z,97.96
2019-03-06T06:06:32.341Z,97.82
2019-03-06T06:09:01.361Z,98.31
2019-03-06T06:11:30.512Z,97.35
2019-03-06T06:13:59.631Z,97.58
2019-03-06T06:16:28.689Z,96.42
2019-03-06T06:18:57.694Z,97.62
2019-03-06T06:21:54.575Z,97.48
2019-03-06T06:24:27.619Z,97.21
2019-03-06T06:26:59.036Z,96.32
2019-03-06T06:29:30.278Z,96.63
2019-03-06T06:31:59.709Z,95.42
2019-03-06T06:34:30.026Z,95.97
2019-03-06T06:36:59.176Z,97.69
2019-03-06T06:39:30.265Z,98.52
2019-03-06T06:41:59.310Z,97.43
2019-03-06T06:44:29.746Z,98.48
2019-03-06T06:46:58.791Z,97.23
2019-03-06T06:49:27.895Z,97.26
2019-03-06T06:52:28.855Z,98.17
2019-03-06T06:55:27.157Z,98.61
2019-03-06T06:58:18.674Z,98.37
2019-03-06T07:01:36.646Z,98.90
2019-03-06T07:04:47.684Z,99.53
2019-03-06T07:07:41.596Z,98.90
2019-03-06T07:10:28.154Z,97.26
2019-03-06T07:13:16.212Z,97.92
2019-03-06T07:16:19.135Z,98.99
2019-03-06T07:19:19.762Z,97.95
2019-03-06T07:22:07.911Z,97.65
2019-03-06T07:24:59.056Z,99.31
2019-03-06T07:27:47.309Z,98.00
2019-03-06T07:30:44.333Z,98.76
2019-03-06T07:33:20.029Z,98.74
2019-03-06T07:36:27.432Z,97.12
2019-03-06T07:39:00.150Z,95.41
2019-03-06T07:41:51.779Z,96.96
2019-03-06T07:44:36.310Z,96.78
2019-03-06T07:47:23.179Z,96.88
2019-03-06T07:50:14.375Z,97.45
2019-03-06T07:53:02.474Z,97.67
2019-03-06T07:55:50.810Z,98.48
2019-03-06T07:59:06.005Z,98.73
2019-03-06T08:01:41.818Z,98.73
2019-03-06T08:04:13.061Z,98.58
2019-03-06T08:06:45.026Z,97.50
2019-03-06T08:09:19.395Z,95.11
2019-03-06T08:12:11.518Z,96.09
2019-03-06T08:15:02.741Z,97.56
2019-03-06T08:17:50.713Z,94.83
2019-03-06T08:20:37.376Z,95.32
2019-03-06T08:23:31.175Z,93.61
2019-03-06T08:26:00.184Z,92.76
2019-03-06T08:28:29.219Z,93.58
2019-03-06T08:31:26.620Z,92.19
2019-03-06T08:33:55.656Z,90.73
2019-03-06T08:36:24.732Z,90.39
2019-03-06T08:38:54.972Z,89.27
2019-03-06T08:41:24.035Z,89.96
2019-03-06T08:43:53.218Z,91.01
2019-03-06T08:46:42.004Z,92.55
2019-03-06T08:49:30.155Z,91.64
2019-03-06T08:52:24.357Z,91.00
2019-03-06T08:55:17.887Z,90.75
2019-03-06T08:58:11.510Z,93.72
2019-03-06T09:01:09.939Z,89.81
2019-03-06T09:04:16.310Z,89.29
2019-03-06T09:06:51.807Z,90.84
2019-03-06T09:09:42.814Z,83.92
2019-03-06T09:12:29.842Z,84.11
2019-03-06T09:15:16.770Z,83.49
2019-03-06T09:18:10.801Z,75.07
2019-03-06T09:21:08.073Z,78.59
2019-03-06T09:23:54.643Z,81.54
2019-03-06T09:26:33.488Z,76.04
2019-03-06T09:29:20.043Z,72.45
2019-03-06T09:32:20.108Z,68.27
2019-03-06T09:35:01.701Z,60.15
2019-03-06T09:37:54.800Z,56.69
2019-03-06T09:40:51.185Z,55.37
2019-03-06T09:43:41.078Z,55.12
2019-03-06T09:46:39.607Z,54.10
2019-03-06T09:49:20.580Z,52.34
2019-03-06T09:52:02.859Z,52.29
2019-03-06T09:54:47.366Z,49.14
2019-03-06T09:57:24.853Z,50.19
2019-03-06T10:00:03.475Z,49.23
2019-03-06T10:02:43.734Z,50.32
2019-03-06T10:05:22.995Z,49.94
2019-03-06T10:08:04.317Z,50.63
2019-03-06T10:10:58.250Z,51.26
2019-03-06T10:13:52.263Z,50.30
2019-03-06T10:16:29.531Z,52.32
2019-03-06T10:19:13.475Z,51.36
2019-03-06T10:21:42.640Z,50.66
2019-03-06T10:24:11.717Z,48.49
2019-03-06T10:26:42.397Z,47.77
2019-03-06T10:29:11.449Z,48.83
2019-03-06T10:31:40.565Z,48.59
2019-03-06T10:34:09.636Z,45.08
2019-03-06T10:36:38.768Z,44.38
2019-03-06T10:39:10.336Z,45.59
2019-03-06T10:41:39.377Z,44.93
2019-03-06T10:44:11.208Z,42.27
2019-03-06T10:46:40.318Z,42.34
2019-03-06T10:49:09.406Z,43.42
2019-03-06T10:51:38.505Z,42.18
2019-03-06T10:54:07.577Z,43.48
2019-03-06T10:56:36.607Z,43.68
2019-03-06T10:59:06.081Z,43.78
2019-03-06T11:01:35.193Z,46.21
2019-03-06T11:04:22.148Z,44.44
2019-03-06T11:06:51.323Z,44.64
2019-03-06T11:09:20.443Z,43.72
2019-03-06T11:11:49.515Z,41.99
2019-03-06T11:14:21.374Z,44.42
2019-03-06T11:16:50.469Z,43.71
2019-03-06T11:19:19.832Z,42.94
2019-03-06T11:21:48.924Z,41.96
2019-03-06T11:24:18.016Z,43.99
2019-03-06T11:26:47.092Z,44.89
2019-03-06T11:29:16.166Z,44.67
2019-03-06T11:31:45.277Z,42.81
2019-03-06T11:34:16.438Z,42.65
2019-03-06T11:36:45.494Z,42.39
2019-03-06T11:39:14.646Z,42.52
2019-03-06T11:41:43.694Z,41.62
2019-03-06T11:44:14.651Z,41.32
2019-03-06T11:46:43.703Z,41.07
2019-03-06T11:49:12.794Z,39.98
2019-03-06T11:51:41.923Z,38.27
2019-03-06T11:54:11.756Z,40.31
2019-03-06T11:56:41.343Z,39.55
2019-03-06T11:59:10.510Z,39.75
2019-03-06T12:01:47.978Z,38.32
2019-03-06T12:04:11.755Z,39.10
2019-03-06T12:06:40.914Z,38.42
2019-03-06T12:09:30.532Z,39.05
2019-03-06T12:11:59.689Z,38.79
2019-03-06T12:14:31.186Z,38.90
2019-03-06T12:17:00.188Z,38.48
2019-03-06T12:19:29.254Z,39.27
2019-03-06T12:21:58.280Z,39.38
2019-03-06T12:24:30.956Z,39.96
2019-03-06T12:27:00.209Z,39.55
2019-03-06T12:29:29.353Z,38.43
2019-03-06T12:31:58.396Z,39.14
2019-03-06T12:34:30.036Z,39.26
2019-03-06T12:36:59.121Z,39.94
2019-03-06T12:39:28.736Z,40.16
2019-03-06T12:42:00.008Z,39.15
2019-03-06T12:44:29.313Z,38.52
2019-03-06T12:47:00.836Z,37.37
2019-03-06T12:49:30.568Z,38.48
2019-03-06T12:51:59.731Z,37.30
2019-03-06T12:54:28.983Z,39.03
2019-03-06T12:56:58.137Z,39.48
2019-03-06T12:59:27.404Z,37.65
2019-03-06T13:01:56.539Z,38.87
2019-03-06T13:04:25.864Z,37.89
2019-03-06T13:06:55.516Z,37.74
2019-03-06T13:09:24.638Z,38.14
2019-03-06T13:11:53.889Z,37.18
2019-03-06T13:14:23.357Z,37.70
2019-03-06T13:16:52.732Z,38.27
2019-03-06T13:19:21.926Z,39.25
2019-03-06T13:21:50.947Z,39.32
2019-03-06T13:24:19.980Z,38.08
2019-03-06T13:26:49.060Z,39.22
2019-03-06T13:29:18.382Z,38.45
2019-03-06T13:31:47.486Z,38.04
2019-03-06T13:34:50.806Z,38.19
2019-03-06T13:37:18.367Z,37.66
2019-03-06T13:39:47.487Z,38.81
2019-03-06T13:42:16.507Z,38.93
2019-03-06T13:44:45.559Z,39.47
2019-03-06T13:47:14.662Z,39.15
2019-03-06T13:49:43.935Z,39.81
2019-03-06T13:52:13.284Z,39.93
2019-03-06T13:54:42.353Z,40.10
2019-03-06T13:57:11.995Z,40.17
2019-03-06T13:59:41.078Z,41.51
2019-03-06T14:02:10.258Z,42.47
2019-03-06T14:04:42.521Z,43.22
2019-03-06T14:07:15.030Z,43.46
2019-03-06T14:09:44.916Z,42.52
2019-03-06T14:12:13.984Z,43.70
2019-03-06T14:14:42.995Z,44.25
2019-03-06T14:17:12.097Z,43.68
2019-03-06T14:19:42.910Z,44.08
2019-03-06T14:22:11.987Z,43.84
2019-03-06T14:24:41.017Z,43.32
2019-03-06T14:27:10.142Z,43.15
2019-03-06T14:29:40.719Z,45.46
2019-03-06T14:32:14.601Z,45.56
2019-03-06T14:34:40.544Z,45.09
2019-03-06T14:37:09.711Z,44.91
2019-03-06T14:39:38.720Z,46.06
2019-03-06T14:42:08.029Z,44.64
2019-03-06T14:44:37.098Z,45.44
2019-03-06T14:47:08.192Z,46.14
2019-03-06T14:49:37.562Z,47.02
2019-03-06T14:52:07.901Z,48.07
2019-03-06T14:54:36.928Z,48.81
2019-03-06T14:57:06.088Z,48.80
2019-03-06T14:59:37.732Z,49.00
2019-03-06T15:02:06.804Z,49.07
2019-03-06T15:04:35.852Z,51.99
2019-03-06T15:07:06.258Z,54.06
2019-03-06T15:09:35.418Z,55.72
2019-03-06T15:12:04.442Z,57.52
2019-03-06T15:14:36.897Z,60.12
2019-03-06T15:17:08.187Z,60.29
2019-03-06T15:19:39.176Z,61.89
2019-03-06T15:22:10.311Z,62.93
2019-03-06T15:24:41.608Z,63.96
2019-03-06T15:27:11.687Z,65.89
2019-03-06T15:29:41.039Z,64.88
2019-03-06T15:32:10.096Z,65.88
2019-03-06T15:34:39.133Z,66.46
2019-03-06T15:37:08.231Z,66.18
2019-03-06T15:39:45.638Z,67.81
2019-03-06T15:42:12.902Z,67.86
2019-03-06T15:44:42.019Z,68.11
2019-03-06T15:47:12.367Z,70.53
2019-03-06T15:49:41.441Z,68.55
2019-03-06T15:52:10.939Z,68.62
2019-03-06T15:54:39.994Z,70.35
2019-03-06T15:57:11.508Z,69.15
2019-03-06T15:59:40.665Z,70.77
2019-03-06T16:02:09.722Z,71.43
2019-03-06T16:04:38.848Z,71.48
2019-03-06T16:07:07.862Z,71.25
2019-03-06T16:09:37.482Z,72.43
2019-03-06T16:12:06.523Z,72.79
2019-03-06T16:14:35.640Z,72.82
2019-03-06T16:17:04.675Z,74.04
2019-03-06T16:19:34.188Z,71.61
2019-03-06T16:22:03.366Z,72.79
2019-03-06T16:24:34.005Z,74.39
2019-03-06T16:27:03.010Z,71.91
2019-03-06T16:29:32.140Z,73.73
2019-03-06T16:32:01.203Z,73.72
2019-03-06T16:34:32.256Z,73.63
2019-03-06T16:37:01.294Z,75.13
2019-03-06T16:39:30.368Z,74.62
2019-03-06T16:41:59.378Z,75.69
2019-03-06T16:44:28.489Z,76.97
2019-03-06T16:47:06.171Z,77.36
2019-03-06T16:49:28.337Z,75.90
2019-03-06T16:51:57.630Z,76.94
2019-03-06T16:54:26.657Z,78.23
2019-03-06T16:56:55.775Z,78.77
2019-03-06T16:59:24.865Z,78.91
2019-03-06T17:01:53.899Z,79.11
2019-03-06T17:04:22.973Z,80.12
2019-03-06T17:06:52.010Z,79.70
2019-03-06T17:09:21.069Z,80.36
2019-03-06T17:11:50.093Z,79.81
2019-03-06T17:14:19.126Z,80.52
2019-03-06T17:16:48.222Z,80.55
2019-03-06T17:19:17.250Z,80.64
2019-03-06T17:21:46.395Z,81.42
2019-03-06T17:24:15.391Z,82.45
2019-03-06T17:26:45.787Z,83.72
2019-03-06T17:29:15.152Z,84.68
2019-03-06T17:31:44.228Z,85.65
2019-03-06T17:34:13.630Z,86.47
2019-03-06T17:36:42.652Z,87.23
2019-03-06T17:39:11.854Z,88.61
2019-03-06T17:41:40.944Z,89.12
2019-03-06T17:44:11.168Z,89.19
2019-03-06T17:46:40.365Z,89.46
2019-03-06T17:49:09.546Z,88.83
2019-03-06T17:51:38.692Z,89.29
2019-03-06T17:54:07.787Z,90.36
2019-03-06T17:56:36.863Z,91.23
2019-03-06T17:59:06.032Z,91.47
2019-03-06T18:01:35.151Z,91.66
2019-03-06T18:04:25.531Z,92.01
2019-03-06T18:06:56.036Z,91.97
2019-03-06T18:09:25.064Z,92.44
2019-03-06T18:11:54.169Z,92.21
2019-03-06T18:14:23.239Z,93.00
2019-03-06T18:16:52.337Z,93.22
2019-03-06T18:19:23.671Z,92.95
2019-03-06T18:21:52.711Z,93.62
2019-03-06T18:24:21.824Z,94.44
2019-03-06T18:26:50.930Z,94.51
2019-03-06T18:29:19.956Z,94.38
2019-03-06T18:31:49.339Z,94.14
2019-03-06T18:34:18.455Z,94.69
2019-03-06T18:36:47.524Z,95.37
2019-03-06T18:39:22.920Z,95.12
2019-03-06T18:41:53.281Z,95.13
2019-03-06T18:44:22.319Z,94.97
2019-03-06T18:46:51.465Z,94.66
2019-03-06T18:49:20.716Z,95.43
2019-03-06T18:51:50.009Z,95.99
2019-03-06T18:54:21.345Z,95.87
2019-03-06T18:56:50.699Z,95.75
2019-03-06T18:59:19.806Z,96.11
2019-03-06T19:01:48.899Z,96.36
2019-03-06T19:04:18.022Z,96.22
2019-03-06T19:06:47.081Z,97.15
2019-03-06T19:09:16.145Z,96.97
2019-03-06T19:11:45.363Z,96.77
2019-03-06T19:14:14.429Z,96.88
2019-03-06T19:16:43.482Z,97.55
2019-03-06T19:19:12.560Z,96.87
2019-03-06T19:21:41.616Z,97.21
2019-03-06T19:24:10.709Z,97.28
2019-03-06T19:26:40.016Z,97.47
2019-03-06T19:29:09.091Z,97.57
2019-03-06T19:31:38.144Z,97.22
2019-03-06T19:34:07.217Z,96.89
2019-03-06T19:36:36.284Z,97.19
2019-03-06T19:39:06.639Z,97.69
2019-03-06T19:41:35.891Z,97.70
2019-03-06T19:44:05.024Z,97.39
2019-03-06T19:46:34.370Z,97.32
2019-03-06T19:49:03.590Z,96.61
2019-03-06T19:51:32.661Z,97.13
2019-03-06T19:54:01.800Z,96.80
2019-03-06T19:56:31.125Z,96.39
2019-03-06T19:59:00.266Z,97.18
2019-03-06T20:01:29.382Z,97.40
2019-03-06T20:03:58.470Z,98.09
2019-03-06T20:06:27.560Z,98.49
2019-03-06T20:08:56.630Z,99.38
2019-03-06T20:11:25.726Z,99.49
2019-03-06T20:13:57.911Z,99.85
2019-03-06T20:16:26.970Z,100.00
2019-03-06T20:18:56.116Z,99.45
2019-03-06T20:21:25.318Z,99.75
2019-03-06T20:23:54.366Z,99.10
2019-03-06T20:26:23.357Z,98.96
2019-03-06T20:28:52.423Z,99.74
2019-03-06T20:31:21.439Z,99.44
2019-03-06T20:33:50.538Z,99.52
2019-03-06T20:36:19.561Z,99.02
2019-03-06T20:38:48.604Z,99.60
2019-03-06T20:41:17.684Z,99.67
2019-03-06T20:43:46.838Z,99.49
2019-03-06T20:46:15.967Z,100.00
2019-03-06T20:48:45.054Z,100.00
2019-03-06T20:51:14.099Z,100.00
2019-03-06T20:53:43.178Z,100.00
2019-03-06T20:56:12.365Z,100.00
2019-03-06T20:58:41.544Z,100.00
2019-03-06T21:01:10.620Z,100.00
2019-03-06T21:03:39.651Z,100.00
2019-03-06T21:06:08.996Z,99.94
2019-03-06T21:08:38.058Z,99.73
2019-03-06T21:11:07.116Z,99.86
2019-03-06T21:13:36.138Z,98.99
2019-03-06T21:16:05.199Z,99.27
2019-03-06T21:18:34.251Z,99.52
2019-03-06T21:21:03.327Z,99.74
2019-03-06T21:23:32.393Z,100.00
2019-03-06T21:26:01.465Z,99.44
2019-03-06T21:28:30.536Z,99.75
2019-03-06T21:30:59.596Z,99.40
2019-03-06T21:33:28.634Z,100.00
2019-03-06T21:35:57.948Z,100.00
2019-03-06T21:38:27.016Z,99.87
2019-03-06T21:40:56.158Z,99.78
2019-03-06T21:43:25.169Z,98.74
2019-03-06T21:45:54.298Z,99.45
2019-03-06T21:48:23.355Z,99.71
2019-03-06T21:50:52.698Z,99.29
2019-03-06T21:53:21.770Z,99.46
2019-03-06T21:55:50.821Z,99.65
2019-03-06T21:58:19.905Z,99.33
2019-03-06T22:00:48.965Z,99.33
2019-03-06T22:03:18.031Z,99.77
2019-03-06T22:05:48.105Z,99.49
2019-03-06T22:08:17.197Z,99.75
2019-03-06T22:10:46.273Z,99.27
2019-03-06T22:13:15.356Z,99.39
2019-03-06T22:15:44.406Z,99.42
2019-03-06T22:18:13.515Z,99.25
2019-03-06T22:20:42.857Z,99.99
2019-03-06T22:23:11.904Z,98.93
2019-03-06T22:25:42.156Z,99.45
2019-03-06T22:28:11.272Z,99.15
2019-03-06T22:30:40.313Z,98.99
2019-03-06T22:33:09.371Z,99.33
2019-03-06T22:35:38.683Z,99.12
2019-03-06T22:38:07.773Z,99.34
2019-03-06T22:40:36.856Z,99.73
2019-03-06T22:43:05.980Z,99.55
2019-03-06T22:45:34.989Z,99.40
2019-03-06T22:48:05.271Z,98.63
2019-03-06T22:50:34.468Z,98.76
2019-03-06T22:53:03.567Z,99.51
2019-03-06T22:55:32.595Z,99.29
2019-03-06T22:58:02.739Z,99.60
2019-03-06T23:00:51.751Z,99.13
2019-03-06T23:03:21.301Z,99.31
2019-03-06T23:05:53.216Z,99.24
2019-03-06T23:08:23.695Z,99.31
2019-03-06T23:10:52.916Z,99.42
2019-03-06T23:13:22.105Z,99.47
2019-03-06T23:15:51.147Z,99.35
2019-03-06T23:18:20.235Z,99.41
2019-03-06T23:20:49.317Z,99.52
2019-03-06T23:23:18.348Z,98.87
2019-03-06T23:25:47.382Z,98.98
2019-03-06T23:28:16.570Z,99.05
2019-03-06T23:30:45.611Z,98.92
2019-03-06T23:33:14.681Z,99.32
2019-03-06T23:35:43.673Z,99.02
2019-03-06T23:38:15.041Z,98.92
2019-03-06T23:40:44.121Z,99.30
2019-03-06T23:43:14.170Z,99.34
2019-03-06T23:45:43.169Z,99.99
2019-03-06T23:48:12.264Z,99.36
2019-03-06T23:50:41.263Z,100.00
2019-03-06T23:53:12.028Z,100.00
2019-03-06T23:55:41.248Z,100.00
2019-03-06T23:58:10.349Z,100.00
